Cape Texel — V7RC4 — position and weather

sailwx.info

Track history (hours):
 
Tides and Currents Weather Stations Pressure Air Temp Water Temp Dewpoint Dewpoint Depression Visibility Wind Speed Wind Dir Waves Ship Positions

Cape Texel

Last reported at 2016-Jun-10 15:33 UTC. Time now 2016-Jun-25 12:33 UTC.
Position S 31°59' E 033°60'.
Warning: this ship's position is 14 days out of date.

Length 228 m; draft 13.4 m.

Type: Ship (hazmat cat A). MMSI: 538090383.

Date/timePositionNaut miles runAvg speedWind from/ knotsBaromVisibWave heightAir tempDewpointWater temp
2016-Jun-10 15:33S 31°59' E 033°60'1412.8
2016-Jun-10 14:29S 32°05' E 033°45'1212.8
2016-Jun-10 13:33S 32°10' E 033°32'1312.8
2016-Jun-10 12:33S 32°15' E 033°18'1212.5
2016-Jun-10 11:33S 32°20' E 033°05'1212.4
2016-Jun-10 10:33S 32°25' E 032°51'1312.6
2016-Jun-10 09:33S 32°30' E 032°38'1211.9
2016-Jun-10 08:33S 32°35' E 032°25'1212.2
2016-Jun-10 07:33S 32°40' E 032°12'1212.4
2016-Jun-10 06:33S 32°45' E 031°58'1312.5
2016-Jun-10 05:33S 32°50' E 031°45'1212.3
2016-Jun-10 04:33S 32°55' E 031°31'1212.1
2016-Jun-10 03:33S 32°60' E 031°18'1212.1
2016-Jun-10 02:33S 33°05' E 031°05'1212.0
2016-Jun-10 01:33S 33°09' E 030°51'1212.0
2016-Jun-10 00:33S 33°14' E 030°38'1312.0
2016-Jun-09 23:28S 33°19' E 030°24'2711.8
2016-Jun-09 21:12S 33°30' E 029°55'  
Track history (hours):
 
Tides and Currents Weather Stations Pressure Air Temp Water Temp Dewpoint Dewpoint Depression Visibility Wind Speed Wind Dir Waves Ship Positions

Cape Texel

Last reported at 2016-Jun-10 15:33 UTC. Time now 2016-Jun-25 12:33 UTC.
Position S 31°59' E 033°60'.
Warning: this ship's position is 14 days out of date.

Length 228 m; draft 13.4 m.

Type: Ship (hazmat cat A). MMSI: 538090383.

Date/timePositionNaut miles runAvg speedWind from/ knotsBaromVisibWave heightAir tempDewpointWater temp
2016-Jun-10 15:33S 31°59' E 033°60'1412.8
2016-Jun-10 14:29S 32°05' E 033°45'1212.8
2016-Jun-10 13:33S 32°10' E 033°32'1312.8
2016-Jun-10 12:33S 32°15' E 033°18'1212.5
2016-Jun-10 11:33S 32°20' E 033°05'1212.4
2016-Jun-10 10:33S 32°25' E 032°51'1312.6
2016-Jun-10 09:33S 32°30' E 032°38'1211.9
2016-Jun-10 08:33S 32°35' E 032°25'1212.2
2016-Jun-10 07:33S 32°40' E 032°12'1212.4
2016-Jun-10 06:33S 32°45' E 031°58'1312.5
2016-Jun-10 05:33S 32°50' E 031°45'1212.3
2016-Jun-10 04:33S 32°55' E 031°31'1212.1
2016-Jun-10 03:33S 32°60' E 031°18'1212.1
2016-Jun-10 02:33S 33°05' E 031°05'1212.0
2016-Jun-10 01:33S 33°09' E 030°51'1212.0
2016-Jun-10 00:33S 33°14' E 030°38'1312.0
2016-Jun-09 23:28S 33°19' E 030°24'2711.8
2016-Jun-09 21:12S 33°30' E 029°55'  

Dump ship's entire track history